createdAt,value
2019-03-20T00:00:09.597Z,2.37
2019-03-20T00:02:36.297Z,2.50
2019-03-20T00:05:04.272Z,2.00
2019-03-20T00:07:31.386Z,2.17
2019-03-20T00:09:58.094Z,2.50
2019-03-20T00:12:24.819Z,2.40
2019-03-20T00:14:51.846Z,2.60
2019-03-20T00:17:18.845Z,2.10
2019-03-20T00:19:45.589Z,2.50
2019-03-20T00:22:12.322Z,2.70
2019-03-20T00:24:39.135Z,2.57
2019-03-20T00:27:05.865Z,2.73
2019-03-20T00:29:33.073Z,2.60
2019-03-20T00:31:59.845Z,2.40
2019-03-20T00:34:26.585Z,2.80
2019-03-20T00:36:55.309Z,2.67
2019-03-20T00:39:24.938Z,2.53
2019-03-20T00:41:51.635Z,2.30
2019-03-20T00:44:18.358Z,2.33
2019-03-20T00:46:45.076Z,2.20
2019-03-20T00:49:11.789Z,2.23
2019-03-20T00:51:38.500Z,2.30
2019-03-20T00:54:05.244Z,2.47
2019-03-20T00:56:32.118Z,2.30
2019-03-20T00:59:00.724Z,2.43
2019-03-20T01:01:27.585Z,2.47
2019-03-20T01:03:54.324Z,2.30
2019-03-20T01:06:21.040Z,2.43
2019-03-20T01:08:47.731Z,2.53
2019-03-20T01:11:14.756Z,2.40
2019-03-20T01:13:44.353Z,2.43
2019-03-20T01:16:11.077Z,2.07
2019-03-20T01:18:37.782Z,2.10
2019-03-20T01:21:04.513Z,2.00
2019-03-20T01:23:31.580Z,2.20
2019-03-20T01:25:58.333Z,2.37
2019-03-20T01:28:26.269Z,2.30
2019-03-20T01:30:52.967Z,2.23
2019-03-20T01:33:19.661Z,2.27
2019-03-20T01:35:46.371Z,2.20
2019-03-20T01:38:13.076Z,2.60
2019-03-20T01:40:40.588Z,2.20
2019-03-20T01:43:07.780Z,2.53
2019-03-20T01:45:34.524Z,2.03
2019-03-20T01:48:01.605Z,2.10
2019-03-20T01:50:28.332Z,2.60
2019-03-20T01:52:55.351Z,3.30
2019-03-20T01:55:22.432Z,2.93
2019-03-20T01:57:49.115Z,2.70
2019-03-20T02:00:15.864Z,2.50
2019-03-20T02:02:42.557Z,2.47
2019-03-20T02:05:09.284Z,2.60
2019-03-20T02:07:35.994Z,2.30
2019-03-20T02:10:02.731Z,2.10
2019-03-20T02:12:29.460Z,2.43
2019-03-20T02:14:56.278Z,2.97
2019-03-20T02:17:22.962Z,3.53
2019-03-20T02:19:49.660Z,3.63
2019-03-20T02:22:16.382Z,2.90
2019-03-20T02:24:43.109Z,2.63
2019-03-20T02:27:09.829Z,1.90
2019-03-20T02:29:39.372Z,2.40
2019-03-20T02:32:06.072Z,2.43
2019-03-20T02:34:32.786Z,2.10
2019-03-20T02:37:01.017Z,2.27
2019-03-20T02:39:27.724Z,2.10
2019-03-20T02:41:54.454Z,2.10
2019-03-20T02:44:21.145Z,2.70
2019-03-20T02:46:47.863Z,2.30
2019-03-20T02:49:14.580Z,2.30
2019-03-20T02:51:43.199Z,2.93
2019-03-20T02:54:09.898Z,3.23
2019-03-20T02:56:36.763Z,2.40
2019-03-20T02:59:03.480Z,2.30
2019-03-20T03:01:30.999Z,2.07
2019-03-20T03:04:01.327Z,2.00
2019-03-20T03:06:28.078Z,2.03
2019-03-20T03:08:54.799Z,2.03
2019-03-20T03:11:21.513Z,2.10
2019-03-20T03:13:48.613Z,1.80
2019-03-20T03:16:15.343Z,2.00
2019-03-20T03:18:42.070Z,1.80
2019-03-20T03:21:08.758Z,2.37
2019-03-20T03:23:35.440Z,2.43
2019-03-20T03:26:02.288Z,2.20
2019-03-20T03:28:28.985Z,2.53
2019-03-20T03:30:56.065Z,1.90
2019-03-20T03:33:22.800Z,2.47
2019-03-20T03:35:49.509Z,2.13
2019-03-20T03:38:16.184Z,2.80
2019-03-20T03:40:42.900Z,1.90
2019-03-20T03:43:09.638Z,2.00
2019-03-20T03:45:36.432Z,2.60
2019-03-20T03:48:03.158Z,2.07
2019-03-20T03:50:29.912Z,2.87
2019-03-20T03:52:56.642Z,2.27
2019-03-20T03:55:23.351Z,2.27
2019-03-20T03:57:50.090Z,2.23
2019-03-20T04:00:16.799Z,2.00
2019-03-20T04:02:43.540Z,2.27
2019-03-20T04:05:11.953Z,2.33
2019-03-20T04:07:38.650Z,2.13
2019-03-20T04:10:07.123Z,2.70
2019-03-20T04:12:33.859Z,2.23
2019-03-20T04:15:00.564Z,2.00
2019-03-20T04:17:29.558Z,1.90
2019-03-20T04:19:56.231Z,2.77
2019-03-20T04:22:22.953Z,2.83
2019-03-20T04:24:49.979Z,2.67
2019-03-20T04:27:16.687Z,2.83
2019-03-20T04:29:43.459Z,3.13
2019-03-20T04:32:10.164Z,2.10
2019-03-20T04:34:37.214Z,2.10
2019-03-20T04:37:04.251Z,2.50
2019-03-20T04:39:30.974Z,2.50
2019-03-20T04:41:59.950Z,2.43
2019-03-20T04:44:26.661Z,2.07
2019-03-20T04:46:53.717Z,2.13
2019-03-20T04:49:23.188Z,2.17
2019-03-20T04:51:50.032Z,2.67
2019-03-20T04:54:16.719Z,2.27
2019-03-20T04:56:43.470Z,2.60
2019-03-20T04:59:10.198Z,2.57
2019-03-20T05:01:39.274Z,2.90
2019-03-20T05:04:06.102Z,2.37
2019-03-20T05:06:32.836Z,2.33
2019-03-20T05:08:59.585Z,2.23
2019-03-20T05:11:26.281Z,2.37
2019-03-20T05:13:53.403Z,2.30
2019-03-20T05:16:20.107Z,2.20
2019-03-20T05:18:46.815Z,3.40
2019-03-20T05:21:13.640Z,3.47
2019-03-20T05:23:40.352Z,4.77
2019-03-20T05:26:07.083Z,2.93
2019-03-20T05:28:33.804Z,2.23
2019-03-20T05:31:00.512Z,2.10
2019-03-20T05:33:29.310Z,2.03
2019-03-20T05:35:56.012Z,2.50
2019-03-20T05:38:22.752Z,2.20
2019-03-20T05:40:49.676Z,2.33
2019-03-20T05:43:16.636Z,2.17
2019-03-20T05:45:43.635Z,2.30
2019-03-20T05:48:10.350Z,2.40
2019-03-20T05:50:37.066Z,2.30
2019-03-20T05:53:03.756Z,2.40
2019-03-20T05:55:30.467Z,2.63
2019-03-20T05:58:02.739Z,2.80
2019-03-20T06:00:31.074Z,2.60
2019-03-20T06:02:58.359Z,2.50
2019-03-20T06:05:25.285Z,2.93
2019-03-20T06:07:52.048Z,3.33
2019-03-20T06:10:21.638Z,3.67
2019-03-20T06:12:48.694Z,2.93
2019-03-20T06:15:15.417Z,2.33
2019-03-20T06:17:42.137Z,2.73
2019-03-20T06:20:08.894Z,2.73
2019-03-20T06:22:35.572Z,2.73
2019-03-20T06:25:03.255Z,2.43
2019-03-20T06:27:29.979Z,2.53
2019-03-20T06:29:56.723Z,2.50
2019-03-20T06:32:23.442Z,2.70
2019-03-20T06:34:50.156Z,2.30
2019-03-20T06:37:16.880Z,2.80
2019-03-20T06:39:45.712Z,2.80
2019-03-20T06:42:12.443Z,2.70
2019-03-20T06:44:39.168Z,3.07
2019-03-20T06:47:05.928Z,2.93
2019-03-20T06:49:35.660Z,2.80
2019-03-20T06:52:02.438Z,2.63
2019-03-20T06:54:32.312Z,3.50
2019-03-20T06:56:59.032Z,2.03
2019-03-20T07:00:11.548Z,2.53
2019-03-20T07:02:41.772Z,2.30
2019-03-20T07:05:52.030Z,2.57
2019-03-20T07:08:21.183Z,3.00
2019-03-20T07:11:03.874Z,2.30
2019-03-20T07:13:30.608Z,2.83
2019-03-20T07:16:00.616Z,2.13
2019-03-20T07:18:29.686Z,2.27
2019-03-20T07:20:56.415Z,2.37
2019-03-20T07:23:23.126Z,2.60
2019-03-20T07:25:52.504Z,2.40
2019-03-20T07:28:19.246Z,2.47
2019-03-20T07:30:46.258Z,2.30
2019-03-20T07:33:13.403Z,2.30
2019-03-20T07:35:40.137Z,2.67
2019-03-20T07:38:06.926Z,2.87
2019-03-20T07:40:34.716Z,2.53
2019-03-20T07:43:08.698Z,3.43
2019-03-20T07:45:30.078Z,2.80
2019-03-20T07:47:56.820Z,3.30
2019-03-20T07:50:26.837Z,3.50
2019-03-20T07:52:53.996Z,3.20
2019-03-20T07:55:20.742Z,4.10
2019-03-20T07:57:55.761Z,4.30
2019-03-20T08:00:22.490Z,3.33
2019-03-20T08:02:49.254Z,4.00
2019-03-20T08:05:28.490Z,3.67
2019-03-20T08:07:46.672Z,3.60
2019-03-20T08:10:14.680Z,4.20
2019-03-20T08:12:44.257Z,4.10
2019-03-20T08:15:12.314Z,4.40
2019-03-20T08:17:39.121Z,4.40
2019-03-20T08:20:09.593Z,4.30
2019-03-20T08:22:36.468Z,4.30
2019-03-20T08:25:06.651Z,5.10
2019-03-20T08:27:35.465Z,4.00
2019-03-20T08:30:02.275Z,4.53
2019-03-20T08:32:28.970Z,4.37
2019-03-20T08:34:58.449Z,3.90
2019-03-20T08:37:25.261Z,4.30
2019-03-20T08:39:52.254Z,4.90
2019-03-20T08:42:21.036Z,3.60
2019-03-20T08:44:47.772Z,3.60
2019-03-20T08:47:14.512Z,3.87
2019-03-20T08:49:41.291Z,4.30
2019-03-20T08:52:12.312Z,3.80
2019-03-20T08:54:42.444Z,3.87
2019-03-20T08:57:09.158Z,4.10
2019-03-20T08:59:35.886Z,3.43
2019-03-20T09:02:02.627Z,3.40
2019-03-20T09:04:29.628Z,4.03
2019-03-20T09:06:56.360Z,3.40
2019-03-20T09:09:23.127Z,3.77
2019-03-20T09:11:50.126Z,3.73
2019-03-20T09:14:16.860Z,3.10
2019-03-20T09:16:43.706Z,3.00
2019-03-20T09:19:10.555Z,3.30
2019-03-20T09:21:37.297Z,3.63
2019-03-20T09:24:04.187Z,3.40
2019-03-20T09:26:30.905Z,3.87
2019-03-20T09:28:57.653Z,3.50
2019-03-20T09:31:24.379Z,3.17
2019-03-20T09:33:52.571Z,3.40
2019-03-20T09:36:19.500Z,2.60
2019-03-20T09:38:46.715Z,2.30
2019-03-20T09:41:13.431Z,2.20
2019-03-20T09:43:45.865Z,2.73
2019-03-20T09:46:12.911Z,2.33
2019-03-20T09:48:39.649Z,2.90
2019-03-20T09:51:06.751Z,2.77
2019-03-20T09:53:33.625Z,2.07
2019-03-20T09:56:00.422Z,2.10
2019-03-20T09:58:27.291Z,2.20
2019-03-20T10:00:54.632Z,2.70
2019-03-20T10:03:21.321Z,2.33
2019-03-20T10:05:48.115Z,2.33
2019-03-20T10:08:17.830Z,3.20
2019-03-20T10:10:44.683Z,2.93
2019-03-20T10:13:14.287Z,3.20
2019-03-20T10:15:41.114Z,2.73
2019-03-20T10:18:08.227Z,2.10
2019-03-20T10:20:35.123Z,2.67
2019-03-20T10:23:01.882Z,3.00
2019-03-20T10:25:28.675Z,3.30
2019-03-20T10:27:55.849Z,2.80
2019-03-20T10:30:22.597Z,4.00
2019-03-20T10:32:49.335Z,2.70
2019-03-20T10:35:16.061Z,2.90
2019-03-20T10:37:42.747Z,3.17
2019-03-20T10:40:12.053Z,2.90
2019-03-20T10:42:38.835Z,3.23
2019-03-20T10:45:07.055Z,3.60
2019-03-20T10:47:34.180Z,4.97
2019-03-20T10:50:01.244Z,3.87
2019-03-20T10:52:28.267Z,3.47
2019-03-20T10:54:55.016Z,3.30
2019-03-20T10:57:21.733Z,3.00
2019-03-20T10:59:48.462Z,3.13
2019-03-20T11:02:15.307Z,4.30
2019-03-20T11:04:42.104Z,3.70
2019-03-20T11:07:09.127Z,4.73
2019-03-20T11:09:39.453Z,3.00
2019-03-20T11:12:06.171Z,2.67
2019-03-20T11:14:33.341Z,3.43
2019-03-20T11:17:00.127Z,3.20
2019-03-20T11:19:26.843Z,6.40
2019-03-20T11:21:53.535Z,3.50
2019-03-20T11:24:22.067Z,2.90
2019-03-20T11:26:51.432Z,2.50
2019-03-20T11:29:21.618Z,2.63
2019-03-20T11:31:46.792Z,3.60
2019-03-20T11:34:15.735Z,3.20
2019-03-20T11:36:42.699Z,3.10
2019-03-20T11:39:09.654Z,4.23
2019-03-20T11:41:36.407Z,3.70
2019-03-20T11:44:03.103Z,3.40
2019-03-20T11:46:29.818Z,3.57
2019-03-20T11:48:58.151Z,4.57
2019-03-20T11:51:24.919Z,2.50
2019-03-20T11:53:51.805Z,3.50
2019-03-20T11:56:18.624Z,4.63
2019-03-20T11:58:45.305Z,3.23
2019-03-20T12:01:12.177Z,3.60
2019-03-20T12:03:39.629Z,3.27
2019-03-20T12:06:06.342Z,3.47
2019-03-20T12:08:33.118Z,3.80
2019-03-20T12:10:59.947Z,3.20
2019-03-20T12:13:26.669Z,3.40
2019-03-20T12:15:53.395Z,3.80
2019-03-20T12:18:20.631Z,3.20
2019-03-20T12:20:47.411Z,3.63
2019-03-20T12:23:14.251Z,3.63
2019-03-20T12:25:42.715Z,3.57
2019-03-20T12:28:12.083Z,4.10
2019-03-20T12:30:38.812Z,3.50
2019-03-20T12:33:05.569Z,3.00
2019-03-20T12:35:32.321Z,3.30
2019-03-20T12:37:59.050Z,2.90
2019-03-20T12:40:30.078Z,2.60
2019-03-20T12:42:56.932Z,2.80
2019-03-20T12:45:25.721Z,2.83
2019-03-20T12:47:52.783Z,2.67
2019-03-20T12:50:19.720Z,2.30
2019-03-20T12:52:46.422Z,2.10
2019-03-20T12:55:13.371Z,2.60
2019-03-20T12:57:40.150Z,2.50
2019-03-20T13:00:10.885Z,2.60
2019-03-20T13:02:37.679Z,2.73
2019-03-20T13:05:04.737Z,2.60
2019-03-20T13:07:31.501Z,2.70
2019-03-20T13:10:03.255Z,2.27
2019-03-20T13:12:47.517Z,2.20
2019-03-20T13:15:16.803Z,2.40
2019-03-20T13:17:43.805Z,2.20
2019-03-20T13:20:10.583Z,2.40
2019-03-20T13:22:37.339Z,2.43
2019-03-20T13:25:05.893Z,2.40
2019-03-20T13:27:33.954Z,2.00
2019-03-20T13:30:00.941Z,2.10
2019-03-20T13:32:27.675Z,2.07
2019-03-20T13:34:54.382Z,2.60
2019-03-20T13:37:21.088Z,2.33
2019-03-20T13:39:48.067Z,1.90
2019-03-20T13:42:14.867Z,2.07
2019-03-20T13:44:42.055Z,2.40
2019-03-20T13:47:11.111Z,3.27
2019-03-20T13:49:38.193Z,2.40
2019-03-20T13:52:05.031Z,2.47
2019-03-20T13:54:36.605Z,2.77
2019-03-20T13:57:03.338Z,2.50
2019-03-20T13:59:30.118Z,3.00
2019-03-20T14:01:56.939Z,2.53
2019-03-20T14:04:23.845Z,2.67
2019-03-20T14:06:50.830Z,2.70
2019-03-20T14:09:19.913Z,2.60
2019-03-20T14:11:47.733Z,2.17
2019-03-20T14:14:14.733Z,2.23
2019-03-20T14:16:44.720Z,2.20
2019-03-20T14:19:14.420Z,2.80
2019-03-20T14:21:41.321Z,1.90
2019-03-20T14:24:08.316Z,2.87
2019-03-20T14:26:35.034Z,2.40
2019-03-20T14:29:01.783Z,2.33
2019-03-20T14:31:35.394Z,2.30
2019-03-20T14:34:02.234Z,2.10
2019-03-20T14:36:29.541Z,2.27
2019-03-20T14:38:56.650Z,3.00
2019-03-20T14:41:24.189Z,2.60
2019-03-20T14:43:51.645Z,2.80
2019-03-20T14:46:21.700Z,2.50
2019-03-20T14:48:48.424Z,3.20
2019-03-20T14:51:15.155Z,2.30
2019-03-20T14:53:41.896Z,2.40
2019-03-20T14:56:08.917Z,2.70
2019-03-20T14:58:37.529Z,2.67
2019-03-20T15:01:04.646Z,2.40
2019-03-20T15:03:31.566Z,2.70
2019-03-20T15:05:58.334Z,2.00
2019-03-20T15:08:25.296Z,2.23
2019-03-20T15:10:52.116Z,2.27
2019-03-20T15:13:19.006Z,2.37
2019-03-20T15:16:00.999Z,2.70
2019-03-20T15:18:30.896Z,2.60
2019-03-20T15:20:57.852Z,2.33
2019-03-20T15:23:27.865Z,2.40
2019-03-20T15:25:54.760Z,2.53
2019-03-20T15:28:21.534Z,3.10
2019-03-20T15:30:48.259Z,3.13
2019-03-20T15:33:15.280Z,3.60
2019-03-20T15:35:42.388Z,3.20
2019-03-20T15:38:09.093Z,3.73
2019-03-20T15:40:35.811Z,3.07
2019-03-20T15:43:02.768Z,4.63
2019-03-20T15:45:29.998Z,3.17
2019-03-20T15:47:56.710Z,3.53
2019-03-20T15:50:23.426Z,3.10
2019-03-20T15:52:50.706Z,5.13
2019-03-20T15:55:23.605Z,3.50
2019-03-20T15:57:53.186Z,6.03
2019-03-20T16:00:19.926Z,2.90
2019-03-20T16:02:48.066Z,3.13
2019-03-20T16:05:14.798Z,3.70
2019-03-20T16:07:41.746Z,3.27
2019-03-20T16:10:13.814Z,3.20
2019-03-20T16:12:42.210Z,3.27
2019-03-20T16:15:12.984Z,3.37
2019-03-20T16:17:40.052Z,3.67
2019-03-20T16:20:08.020Z,4.13
2019-03-20T16:22:34.790Z,4.37
2019-03-20T16:25:01.704Z,3.73
2019-03-20T16:27:28.571Z,3.60
2019-03-20T16:29:55.361Z,3.90
2019-03-20T16:32:22.545Z,3.67
2019-03-20T16:34:49.705Z,4.03
2019-03-20T16:37:16.428Z,4.67
2019-03-20T16:39:43.167Z,5.73
2019-03-20T16:42:09.928Z,5.00
2019-03-20T16:44:36.751Z,8.00
2019-03-20T16:47:05.375Z,4.53
2019-03-20T16:49:32.474Z,5.10
2019-03-20T16:51:59.980Z,4.70
2019-03-20T16:54:26.737Z,6.00
2019-03-20T16:56:53.556Z,5.23
2019-03-20T16:59:23.731Z,6.57
2019-03-20T17:01:50.433Z,5.97
2019-03-20T17:04:18.364Z,4.97
2019-03-20T17:06:45.217Z,4.90
2019-03-20T17:09:11.946Z,5.13
2019-03-20T17:11:38.856Z,5.40
2019-03-20T17:14:06.026Z,4.73
2019-03-20T17:16:32.840Z,5.60
2019-03-20T17:18:59.567Z,5.17
2019-03-20T17:21:26.296Z,4.80
2019-03-20T17:23:54.805Z,4.80
2019-03-20T17:26:21.561Z,5.70
2019-03-20T17:28:48.602Z,5.03
2019-03-20T17:31:15.352Z,6.80
2019-03-20T17:33:42.126Z,5.30
2019-03-20T17:36:09.007Z,5.40
2019-03-20T17:38:40.688Z,4.70
2019-03-20T17:41:07.380Z,4.90
2019-03-20T17:43:34.120Z,5.00
2019-03-20T17:46:00.924Z,5.00
2019-03-20T17:48:28.200Z,4.67
2019-03-20T17:50:55.154Z,5.40
2019-03-20T17:53:21.990Z,4.73
2019-03-20T17:55:48.755Z,4.60
2019-03-20T17:58:15.589Z,4.30
2019-03-20T18:00:44.881Z,4.20
2019-03-20T18:03:27.825Z,4.93
2019-03-20T18:06:01.146Z,5.20
2019-03-20T18:08:28.110Z,5.23
2019-03-20T18:10:54.966Z,4.50
2019-03-20T18:13:22.414Z,3.80
2019-03-20T18:15:49.158Z,4.10
2019-03-20T18:18:15.918Z,4.10
2019-03-20T18:20:44.188Z,5.10
2019-03-20T18:23:14.340Z,3.80
2019-03-20T18:25:42.301Z,3.33
2019-03-20T18:28:09.388Z,3.60
2019-03-20T18:30:36.567Z,3.50
2019-03-20T18:33:04.349Z,3.60
2019-03-20T18:35:31.108Z,3.60
2019-03-20T18:37:57.941Z,2.73
2019-03-20T18:40:32.690Z,3.63
2019-03-20T18:43:04.363Z,3.23
2019-03-20T18:45:31.072Z,3.87
2019-03-20T18:47:57.857Z,3.60
2019-03-20T18:50:24.949Z,4.30
2019-03-20T18:52:55.003Z,3.70
2019-03-20T18:55:21.757Z,3.23
2019-03-20T18:57:48.523Z,2.60
2019-03-20T19:00:20.504Z,2.90
2019-03-20T19:02:50.926Z,4.23
2019-03-20T19:05:23.465Z,3.03
2019-03-20T19:07:50.287Z,3.73
2019-03-20T19:10:17.109Z,3.10
2019-03-20T19:12:43.833Z,3.23
2019-03-20T19:15:16.154Z,3.13
2019-03-20T19:17:42.912Z,3.10
2019-03-20T19:20:12.081Z,2.40
2019-03-20T19:22:38.820Z,2.67
2019-03-20T19:25:06.862Z,2.10
2019-03-20T19:27:33.660Z,1.90
2019-03-20T19:30:00.461Z,2.37
2019-03-20T19:32:27.222Z,2.20
2019-03-20T19:34:53.979Z,2.10
2019-03-20T19:37:21.646Z,2.73
2019-03-20T19:39:49.614Z,2.77
2019-03-20T19:42:20.155Z,3.00
2019-03-20T19:44:45.100Z,3.70
2019-03-20T19:47:11.845Z,2.40
2019-03-20T19:49:39.012Z,3.03
2019-03-20T19:52:05.750Z,4.53
2019-03-20T19:54:32.616Z,4.10
2019-03-20T19:56:59.533Z,4.20
2019-03-20T19:59:26.412Z,3.43
2019-03-20T20:01:53.155Z,2.80
2019-03-20T20:04:19.943Z,2.70
2019-03-20T20:06:47.471Z,2.20
2019-03-20T20:09:14.387Z,2.40
2019-03-20T20:11:44.212Z,2.30
2019-03-20T20:14:11.849Z,2.27
2019-03-20T20:16:38.562Z,2.83
2019-03-20T20:19:05.547Z,2.40
2019-03-20T20:21:32.284Z,2.33
2019-03-20T20:23:59.015Z,2.80
2019-03-20T20:26:26.049Z,2.33
2019-03-20T20:28:52.799Z,2.40
2019-03-20T20:31:19.564Z,2.17
2019-03-20T20:33:46.273Z,2.07
2019-03-20T20:36:13.007Z,2.33
2019-03-20T20:38:40.169Z,2.63
2019-03-20T20:41:06.919Z,2.27
2019-03-20T20:43:34.469Z,2.13
2019-03-20T20:46:01.713Z,2.40
2019-03-20T20:48:28.509Z,2.60
2019-03-20T20:50:55.396Z,3.00
2019-03-20T20:53:22.137Z,2.50
2019-03-20T20:55:48.977Z,2.40
2019-03-20T20:58:15.749Z,2.20
2019-03-20T21:00:42.659Z,2.40
2019-03-20T21:03:09.521Z,2.90
2019-03-20T21:05:36.227Z,2.70
2019-03-20T21:08:02.984Z,2.60
2019-03-20T21:10:29.744Z,2.63
2019-03-20T21:12:57.617Z,2.30
2019-03-20T21:15:52.013Z,2.40
2019-03-20T21:19:01.009Z,2.47
2019-03-20T21:21:44.568Z,2.10
2019-03-20T21:24:24.080Z,2.20
2019-03-20T21:27:30.082Z,2.80
2019-03-20T21:30:28.745Z,2.60
2019-03-20T21:32:56.464Z,2.57
2019-03-20T21:36:16.678Z,3.07
2019-03-20T21:38:45.459Z,2.70
2019-03-20T21:41:50.781Z,2.67
2019-03-20T21:45:06.087Z,2.50
2019-03-20T21:47:35.743Z,2.40
2019-03-20T21:50:55.711Z,2.47
2019-03-20T21:53:48.465Z,2.50
2019-03-20T21:56:23.192Z,2.70
2019-03-20T21:59:13.767Z,2.50
2019-03-20T22:02:18.745Z,2.80
2019-03-20T22:04:46.046Z,3.13
2019-03-20T22:07:13.411Z,2.93
2019-03-20T22:10:30.035Z,3.00
2019-03-20T22:13:18.809Z,2.90
2019-03-20T22:16:22.313Z,2.60
2019-03-20T22:19:39.402Z,3.13
2019-03-20T22:22:34.591Z,3.45
2019-03-20T22:25:52.893Z,3.17
2019-03-20T22:29:26.202Z,3.63
2019-03-20T22:32:19.553Z,3.60
2019-03-20T22:35:19.034Z,4.33
2019-03-20T22:37:46.327Z,3.60
2019-03-20T22:41:04.052Z,3.53
2019-03-20T22:43:40.695Z,3.03
2019-03-20T22:46:49.286Z,3.10
2019-03-20T22:49:53.041Z,3.00
2019-03-20T22:52:44.339Z,2.97
2019-03-20T22:55:35.663Z,3.40
2019-03-20T22:58:43.767Z,3.23
2019-03-20T23:01:35.074Z,3.30
2019-03-20T23:04:07.672Z,3.53
2019-03-20T23:06:34.950Z,3.00
2019-03-20T23:09:03.657Z,2.93
2019-03-20T23:11:31.232Z,3.40
2019-03-20T23:13:58.533Z,3.70
2019-03-20T23:16:26.308Z,3.90
2019-03-20T23:18:53.678Z,3.17
2019-03-20T23:21:20.958Z,3.43
2019-03-20T23:23:48.232Z,3.10
2019-03-20T23:26:15.819Z,3.20
2019-03-20T23:28:43.110Z,3.00
2019-03-20T23:31:10.348Z,2.83
2019-03-20T23:33:37.821Z,3.07
2019-03-20T23:36:05.755Z,3.00
2019-03-20T23:38:33.795Z,2.60
2019-03-20T23:41:01.087Z,3.43
2019-03-20T23:43:28.353Z,3.50
2019-03-20T23:45:55.701Z,3.80
2019-03-20T23:48:30.701Z,3.50
2019-03-20T23:51:05.255Z,3.63
2019-03-20T23:53:33.174Z,3.30
2019-03-20T23:56:00.564Z,4.03
2019-03-20T23:58:27.942Z,3.60
